sensor_id;sensor_type;location;lat;lon;timestamp;pressure;altitude;pressure_sealevel;temperature
79053;BMP280;68451;49.510;6.026;2023-04-01T00:01:19;96482.31;;;8.28
79053;BMP280;68451;49.510;6.026;2023-04-01T00:03:45;96508.59;;;8.48
79053;BMP280;68451;49.510;6.026;2023-04-01T00:06:15;96478.84;;;8.39
79053;BMP280;68451;49.510;6.026;2023-04-01T00:08:41;96280.91;;;7.11
79053;BMP280;68451;49.510;6.026;2023-04-01T00:11:07;96486.09;;;8.37
79053;BMP280;68451;49.510;6.026;2023-04-01T00:13:32;96465.22;;;8.32
79053;BMP280;68451;49.510;6.026;2023-04-01T00:15:58;96273.91;;;7.12
79053;BMP280;68451;49.510;6.026;2023-04-01T00:18:24;96266.78;;;7.02
79053;BMP280;68451;49.510;6.026;2023-04-01T00:20:51;96396.94;;;7.93
79053;BMP280;68451;49.510;6.026;2023-04-01T00:23:18;96333.81;;;7.49
79053;BMP280;68451;49.510;6.026;2023-04-01T00:25:44;96474.41;;;8.39
79053;BMP280;68451;49.510;6.026;2023-04-01T00:28:10;96472.59;;;8.40
79053;BMP280;68451;49.510;6.026;2023-04-01T00:30:36;96392.53;;;7.93
79053;BMP280;68451;49.510;6.026;2023-04-01T00:33:02;96354.09;;;7.74
79053;BMP280;68451;49.510;6.026;2023-04-01T00:35:28;96362.19;;;7.77
79053;BMP280;68451;49.510;6.026;2023-04-01T00:37:53;96490.47;;;8.58
79053;BMP280;68451;49.510;6.026;2023-04-01T00:40:27;96396.34;;;8.13
79053;BMP280;68451;49.510;6.026;2023-04-01T00:42:54;96485.84;;;8.60
79053;BMP280;68451;49.510;6.026;2023-04-01T00:45:33;96504.69;;;8.72
79053;BMP280;68451;49.510;6.026;2023-04-01T00:50:43;96486.97;;;8.69
79053;BMP280;68451;49.510;6.026;2023-04-01T00:53:10;96482.72;;;8.63
79053;BMP280;68451;49.510;6.026;2023-04-01T00:55:39;96343.97;;;7.72
79053;BMP280;68451;49.510;6.026;2023-04-01T00:58:13;96362.44;;;7.97
79053;BMP280;68451;49.510;6.026;2023-04-01T01:00:39;96363.66;;;7.90
79053;BMP280;68451;49.510;6.026;2023-04-01T01:03:05;96399.56;;;8.20
79053;BMP280;68451;49.510;6.026;2023-04-01T01:11:39;96471.06;;;8.66
79053;BMP280;68451;49.510;6.026;2023-04-01T01:14:18;96321.06;;;7.69
79053;BMP280;68451;49.510;6.026;2023-04-01T01:16:51;96461.34;;;8.56
79053;BMP280;68451;49.510;6.026;2023-04-01T01:22:36;96476.56;;;8.69
79053;BMP280;68451;49.510;6.026;2023-04-01T01:28:02;96477.09;;;8.71
79053;BMP280;68451;49.510;6.026;2023-04-01T01:31:03;96442.09;;;8.57
79053;BMP280;68451;49.510;6.026;2023-04-01T01:33:45;96361.19;;;8.05
79053;BMP280;68451;49.510;6.026;2023-04-01T01:36:15;96350.66;;;7.90
79053;BMP280;68451;49.510;6.026;2023-04-01T01:38:42;96349.66;;;7.96
79053;BMP280;68451;49.510;6.026;2023-04-01T01:41:11;96447.56;;;8.56
79053;BMP280;68451;49.510;6.026;2023-04-01T01:43:40;96381.97;;;8.27
79053;BMP280;68451;49.510;6.026;2023-04-01T01:46:12;96441.06;;;8.58
79053;BMP280;68451;49.510;6.026;2023-04-01T01:48:40;96322.25;;;7.83
79053;BMP280;68451;49.510;6.026;2023-04-01T01:51:07;96430.53;;;8.43
79053;BMP280;68451;49.510;6.026;2023-04-01T01:53:32;96348.00;;;7.85
79053;BMP280;68451;49.510;6.026;2023-04-01T01:55:58;96445.06;;;8.44
79053;BMP280;68451;49.510;6.026;2023-04-01T01:58:30;96457.06;;;8.45
79053;BMP280;68451;49.510;6.026;2023-04-01T02:00:59;96410.06;;;8.08
79053;BMP280;68451;49.510;6.026;2023-04-01T02:03:29;96392.03;;;7.96
79053;BMP280;68451;49.510;6.026;2023-04-01T02:05:58;96289.19;;;7.30
79053;BMP280;68451;49.510;6.026;2023-04-01T02:08:34;96437.53;;;8.21
79053;BMP280;68451;49.510;6.026;2023-04-01T02:11:06;96339.59;;;7.56
79053;BMP280;68451;49.510;6.026;2023-04-01T02:13:43;96299.56;;;7.30
79053;BMP280;68451;49.510;6.026;2023-04-01T02:16:16;96356.88;;;7.67
79053;BMP280;68451;49.510;6.026;2023-04-01T02:18:48;96458.91;;;8.28
79053;BMP280;68451;49.510;6.026;2023-04-01T02:21:15;96343.34;;;7.43
79053;BMP280;68451;49.510;6.026;2023-04-01T02:23:41;96368.38;;;7.71
79053;BMP280;68451;49.510;6.026;2023-04-01T02:26:08;96448.34;;;8.13
79053;BMP280;68451;49.510;6.026;2023-04-01T02:28:36;96416.19;;;7.97
79053;BMP280;68451;49.510;6.026;2023-04-01T02:31:03;96390.41;;;7.69
79053;BMP280;68451;49.510;6.026;2023-04-01T02:33:30;96337.00;;;7.34
79053;BMP280;68451;49.510;6.026;2023-04-01T02:35:56;96436.75;;;7.98
79053;BMP280;68451;49.510;6.026;2023-04-01T02:38:22;96420.84;;;7.95
79053;BMP280;68451;49.510;6.026;2023-04-01T02:40:51;96431.06;;;8.01
79053;BMP280;68451;49.510;6.026;2023-04-01T02:43:17;96422.41;;;7.96
79053;BMP280;68451;49.510;6.026;2023-04-01T02:45:44;96349.31;;;7.44
79053;BMP280;68451;49.510;6.026;2023-04-01T02:48:10;96416.06;;;7.87
79053;BMP280;68451;49.510;6.026;2023-04-01T02:50:35;96308.19;;;7.14
79053;BMP280;68451;49.510;6.026;2023-04-01T02:53:01;96425.75;;;7.91
79053;BMP280;68451;49.510;6.026;2023-04-01T02:55:28;96395.13;;;7.72
79053;BMP280;68451;49.510;6.026;2023-04-01T02:57:55;96417.78;;;7.76
79053;BMP280;68451;49.510;6.026;2023-04-01T03:00:21;96309.06;;;7.03
79053;BMP280;68451;49.510;6.026;2023-04-01T03:02:46;96394.19;;;7.61
79053;BMP280;68451;49.510;6.026;2023-04-01T03:05:12;96420.91;;;7.78
79053;BMP280;68451;49.510;6.026;2023-04-01T03:07:38;96431.28;;;7.78
79053;BMP280;68451;49.510;6.026;2023-04-01T03:10:04;96291.31;;;6.95
79053;BMP280;68451;49.510;6.026;2023-04-01T03:12:29;96409.13;;;7.71
79053;BMP280;68451;49.510;6.026;2023-04-01T03:14:55;96399.75;;;7.70
79053;BMP280;68451;49.510;6.026;2023-04-01T03:17:20;96334.19;;;7.19
79053;BMP280;68451;49.510;6.026;2023-04-01T03:19:46;96258.72;;;6.82
79053;BMP280;68451;49.510;6.026;2023-04-01T03:22:11;96383.03;;;7.60
79053;BMP280;68451;49.510;6.026;2023-04-01T03:24:37;96401.50;;;7.64
79053;BMP280;68451;49.510;6.026;2023-04-01T03:27:02;96378.84;;;7.59
79053;BMP280;68451;49.510;6.026;2023-04-01T03:29:28;96322.19;;;7.13
79053;BMP280;68451;49.510;6.026;2023-04-01T03:31:53;96335.75;;;7.20
79053;BMP280;68451;49.510;6.026;2023-04-01T03:34:19;96374.72;;;7.58
79053;BMP280;68451;49.510;6.026;2023-04-01T03:36:44;96271.53;;;6.89
79053;BMP280;68451;49.510;6.026;2023-04-01T03:39:10;96263.44;;;6.85
79053;BMP280;68451;49.510;6.026;2023-04-01T03:41:36;96395.44;;;7.75
79053;BMP280;68451;49.510;6.026;2023-04-01T03:44:03;96312.41;;;7.20
79053;BMP280;68451;49.510;6.026;2023-04-01T03:46:28;96409.19;;;7.76
79053;BMP280;68451;49.510;6.026;2023-04-01T03:48:54;96315.97;;;7.14
79053;BMP280;68451;49.510;6.026;2023-04-01T03:51:20;96237.13;;;6.77
79053;BMP280;68451;49.510;6.026;2023-04-01T03:53:45;96288.19;;;7.14
79053;BMP280;68451;49.510;6.026;2023-04-01T03:56:11;96322.75;;;7.37
79053;BMP280;68451;49.510;6.026;2023-04-01T03:58:37;96399.22;;;7.89
79053;BMP280;68451;49.510;6.026;2023-04-01T04:01:14;96378.25;;;7.74
79053;BMP280;68451;49.510;6.026;2023-04-01T04:03:39;96389.16;;;7.71
79053;BMP280;68451;49.510;6.026;2023-04-01T04:06:05;96274.50;;;6.97
79053;BMP280;68451;49.510;6.026;2023-04-01T04:08:31;96405.22;;;7.90
79053;BMP280;68451;49.510;6.026;2023-04-01T04:10:56;96239.94;;;6.92
79053;BMP280;68451;49.510;6.026;2023-04-01T04:13:22;96285.06;;;7.12
79053;BMP280;68451;49.510;6.026;2023-04-01T04:15:47;96410.16;;;7.91
79053;BMP280;68451;49.510;6.026;2023-04-01T04:18:13;96325.03;;;7.33
79053;BMP280;68451;49.510;6.026;2023-04-01T04:20:44;96401.50;;;7.86
79053;BMP280;68451;49.510;6.026;2023-04-01T04:23:10;96297.94;;;7.24
79053;BMP280;68451;49.510;6.026;2023-04-01T04:25:36;96409.69;;;7.94
79053;BMP280;68451;49.510;6.026;2023-04-01T04:28:01;96422.91;;;7.93
79053;BMP280;68451;49.510;6.026;2023-04-01T04:30:27;96305.97;;;7.23
79053;BMP280;68451;49.510;6.026;2023-04-01T04:32:52;96424.00;;;7.97
79053;BMP280;68451;49.510;6.026;2023-04-01T04:35:18;96399.69;;;7.86
79053;BMP280;68451;49.510;6.026;2023-04-01T04:37:43;96395.13;;;7.93
79053;BMP280;68451;49.510;6.026;2023-04-01T04:40:09;96393.31;;;7.94
79053;BMP280;68451;49.510;6.026;2023-04-01T04:42:34;96297.22;;;7.29
79053;BMP280;68451;49.510;6.026;2023-04-01T04:45:00;96334.25;;;7.62
79053;BMP280;68451;49.510;6.026;2023-04-01T04:47:25;96394.69;;;8.01
79053;BMP280;68451;49.510;6.026;2023-04-01T04:49:51;96381.22;;;7.83
79053;BMP280;68451;49.510;6.026;2023-04-01T04:52:16;96272.53;;;7.26
79053;BMP280;68451;49.510;6.026;2023-04-01T04:54:42;96199.44;;;6.69
79053;BMP280;68451;49.510;6.026;2023-04-01T04:57:07;96400.63;;;7.97
79053;BMP280;68451;49.510;6.026;2023-04-01T04:59:33;96189.00;;;6.64
79053;BMP280;68451;49.510;6.026;2023-04-01T05:04:36;96311.41;;;7.43
79053;BMP280;68451;49.510;6.026;2023-04-01T05:07:02;96398.75;;;7.92
79053;BMP280;68451;49.510;6.026;2023-04-01T05:09:27;96373.06;;;7.74
79053;BMP280;68451;49.510;6.026;2023-04-01T05:11:53;96398.50;;;7.94
79053;BMP280;68451;49.510;6.026;2023-04-01T05:14:18;96400.38;;;7.98
79053;BMP280;68451;49.510;6.026;2023-04-01T05:16:44;96422.06;;;8.09
79053;BMP280;68451;49.510;6.026;2023-04-01T05:19:09;96316.91;;;7.46
79053;BMP280;68451;49.510;6.026;2023-04-01T05:21:35;96395.34;;;7.92
79053;BMP280;68451;49.510;6.026;2023-04-01T05:24:00;96397.22;;;7.96
79053;BMP280;68451;49.510;6.026;2023-04-01T05:26:26;96269.88;;;7.21
79053;BMP280;68451;49.510;6.026;2023-04-01T05:28:51;96420.88;;;8.22
79053;BMP280;68451;49.510;6.026;2023-04-01T05:31:17;96375.06;;;7.89
79053;BMP280;68451;49.510;6.026;2023-04-01T05:33:43;96323.31;;;7.60
79053;BMP280;68451;49.510;6.026;2023-04-01T05:36:10;96167.63;;;6.57
79053;BMP280;68451;49.510;6.026;2023-04-01T05:38:36;96421.09;;;8.15
79053;BMP280;68451;49.510;6.026;2023-04-01T05:41:02;96303.84;;;7.41
79053;BMP280;68451;49.510;6.026;2023-04-01T05:43:28;96274.84;;;7.23
79053;BMP280;68451;49.510;6.026;2023-04-01T05:45:55;96434.44;;;8.24
79053;BMP280;68451;49.510;6.026;2023-04-01T05:48:20;96415.78;;;8.05
79053;BMP280;68451;49.510;6.026;2023-04-01T05:50:46;96390.94;;;7.92
79053;BMP280;68451;49.510;6.026;2023-04-01T05:53:11;96412.44;;;8.09
79053;BMP280;68451;49.510;6.026;2023-04-01T05:55:37;96310.09;;;7.40
79053;BMP280;68451;49.510;6.026;2023-04-01T05:58:02;96433.78;;;8.12
79053;BMP280;68451;49.510;6.026;2023-04-01T06:00:28;96406.41;;;8.04
79053;BMP280;68451;49.510;6.026;2023-04-01T06:02:53;96291.66;;;7.20
79053;BMP280;68451;49.510;6.026;2023-04-01T06:05:27;96427.91;;;7.99
79053;BMP280;68451;49.510;6.026;2023-04-01T06:08:02;96416.31;;;8.07
79053;BMP280;68451;49.510;6.026;2023-04-01T06:10:53;96423.13;;;8.13
79053;BMP280;68451;49.510;6.026;2023-04-01T06:19:31;96331.03;;;7.55
79053;BMP280;68451;49.510;6.026;2023-04-01T06:25:15;96373.63;;;7.76
79053;BMP280;68451;49.510;6.026;2023-04-01T06:28:01;96351.06;;;7.60
79053;BMP280;68451;49.510;6.026;2023-04-01T06:30:38;96446.53;;;8.35
79053;BMP280;68451;49.510;6.026;2023-04-01T06:33:25;96378.25;;;7.96
79053;BMP280;68451;49.510;6.026;2023-04-01T06:42:15;96477.09;;;8.71
79053;BMP280;68451;49.510;6.026;2023-04-01T06:50:30;96485.94;;;8.70
79053;BMP280;68451;49.510;6.026;2023-04-01T06:53:19;96493.00;;;8.75
79053;BMP280;68451;49.510;6.026;2023-04-01T06:55:57;96497.16;;;8.76
79053;BMP280;68451;49.510;6.026;2023-04-01T06:58:36;96457.66;;;8.52
79053;BMP280;68451;49.510;6.026;2023-04-01T07:01:07;96389.84;;;8.10
79053;BMP280;68451;49.510;6.026;2023-04-01T07:03:36;96370.81;;;8.04
79053;BMP280;68451;49.510;6.026;2023-04-01T07:06:06;96371.41;;;8.12
79053;BMP280;68451;49.510;6.026;2023-04-01T07:08:36;96488.78;;;8.69
79053;BMP280;68451;49.510;6.026;2023-04-01T07:11:06;96397.03;;;8.25
79053;BMP280;68451;49.510;6.026;2023-04-01T07:13:41;96416.63;;;8.32
79053;BMP280;68451;49.510;6.026;2023-04-01T07:16:19;96495.97;;;8.88
79053;BMP280;68451;49.510;6.026;2023-04-01T07:18:53;96486.06;;;8.85
79053;BMP280;68451;49.510;6.026;2023-04-01T07:21:25;96410.41;;;8.33
79053;BMP280;68451;49.510;6.026;2023-04-01T07:23:52;96500.66;;;8.86
79053;BMP280;68451;49.510;6.026;2023-04-01T07:26:22;96521.53;;;8.91
79053;BMP280;68451;49.510;6.026;2023-04-01T07:28:48;96447.78;;;8.54
79053;BMP280;68451;49.510;6.026;2023-04-01T07:31:32;96511.19;;;8.96
79053;BMP280;68451;49.510;6.026;2023-04-01T07:37:06;96458.81;;;8.66
79053;BMP280;68451;49.510;6.026;2023-04-01T07:39:40;96529.03;;;9.15
79053;BMP280;68451;49.510;6.026;2023-04-01T07:42:24;96485.56;;;8.83
79053;BMP280;68451;49.510;6.026;2023-04-01T07:45:19;96519.59;;;9.09
79053;BMP280;68451;49.510;6.026;2023-04-01T07:53:38;96517.94;;;8.97
79053;BMP280;68451;49.510;6.026;2023-04-01T07:56:15;96501.06;;;9.00
79053;BMP280;68451;49.510;6.026;2023-04-01T07:58:56;96413.88;;;8.44
79053;BMP280;68451;49.510;6.026;2023-04-01T08:04:43;96525.34;;;9.11
79053;BMP280;68451;49.510;6.026;2023-04-01T08:07:18;96457.06;;;8.72
79053;BMP280;68451;49.510;6.026;2023-04-01T08:15:28;96506.22;;;8.95
79053;BMP280;68451;49.510;6.026;2023-04-01T08:18:15;96550.53;;;9.32
79053;BMP280;68451;49.510;6.026;2023-04-01T08:20:50;96543.88;;;9.14
79053;BMP280;68451;49.510;6.026;2023-04-01T08:23:20;96562.28;;;9.34
79053;BMP280;68451;49.510;6.026;2023-04-01T08:25:58;96561.75;;;9.32
79053;BMP280;68451;49.510;6.026;2023-04-01T08:28:33;96534.44;;;9.08
79053;BMP280;68451;49.510;6.026;2023-04-01T08:31:09;96567.53;;;9.39
79053;BMP280;68451;49.510;6.026;2023-04-01T08:33:36;96506.53;;;9.04
79053;BMP280;68451;49.510;6.026;2023-04-01T08:36:08;96537.97;;;9.24
79053;BMP280;68451;49.510;6.026;2023-04-01T08:38:44;96574.88;;;9.48
79053;BMP280;68451;49.510;6.026;2023-04-01T08:44:19;96560.66;;;9.55
79053;BMP280;68451;49.510;6.026;2023-04-01T08:52:26;96554.84;;;9.48
79053;BMP280;68451;49.510;6.026;2023-04-01T08:58:11;96555.50;;;9.65
79053;BMP280;68451;49.510;6.026;2023-04-01T09:00:57;96574.88;;;9.79
79053;BMP280;68451;49.510;6.026;2023-04-01T09:03:44;96566.59;;;9.87
79053;BMP280;68451;49.510;6.026;2023-04-01T09:06:37;96605.56;;;10.04
79053;BMP280;68451;49.510;6.026;2023-04-01T09:09:35;96498.69;;;9.30
79053;BMP280;68451;49.510;6.026;2023-04-01T09:12:18;96602.38;;;9.97
79053;BMP280;68451;49.510;6.026;2023-04-01T09:20:49;96565.84;;;9.92
79053;BMP280;68451;49.510;6.026;2023-04-01T09:23:46;96605.84;;;10.08
79053;BMP280;68451;49.510;6.026;2023-04-01T09:26:37;96602.97;;;10.09
79053;BMP280;68451;49.510;6.026;2023-04-01T09:29:26;96501.63;;;9.39
79053;BMP280;68451;49.510;6.026;2023-04-01T09:32:13;96600.31;;;9.99
79053;BMP280;68451;49.510;6.026;2023-04-01T09:34:57;96588.28;;;9.93
79053;BMP280;68451;49.510;6.026;2023-04-01T09:40:31;96577.66;;;10.05
79053;BMP280;68451;49.510;6.026;2023-04-01T09:43:16;96568.72;;;9.91
79053;BMP280;68451;49.510;6.026;2023-04-01T09:48:46;96518.53;;;9.68
79053;BMP280;68451;49.510;6.026;2023-04-01T09:51:40;96614.38;;;10.30
79053;BMP280;68451;49.510;6.026;2023-04-01T10:00:20;96612.00;;;10.75
79053;BMP280;68451;49.510;6.026;2023-04-01T10:06:06;96512.16;;;10.43
79053;BMP280;68451;49.510;6.026;2023-04-01T10:11:52;96611.31;;;11.05
79053;BMP280;68451;49.510;6.026;2023-04-01T10:23:35;96621.28;;;11.39
79053;BMP280;68451;49.510;6.026;2023-04-01T10:38:27;96639.28;;;11.30
79053;BMP280;68451;49.510;6.026;2023-04-01T10:41:31;96645.81;;;11.22
79053;BMP280;68451;49.510;6.026;2023-04-01T10:44:18;96627.72;;;10.96
79053;BMP280;68451;49.510;6.026;2023-04-01T10:47:08;96538.22;;;10.38
79053;BMP280;68451;49.510;6.026;2023-04-01T10:50:05;96631.63;;;10.98
79053;BMP280;68451;49.510;6.026;2023-04-01T10:52:54;96531.72;;;10.36
79053;BMP280;68451;49.510;6.026;2023-04-01T11:15:55;96601.53;;;10.81
79053;BMP280;68451;49.510;6.026;2023-04-01T11:24:45;96682.63;;;11.16
79053;BMP280;68451;49.510;6.026;2023-04-01T11:27:41;96674.00;;;11.10
79053;BMP280;68451;49.510;6.026;2023-04-01T11:30:28;96652.03;;;11.06
79053;BMP280;68451;49.510;6.026;2023-04-01T11:33:17;96666.91;;;11.01
79053;BMP280;68451;49.510;6.026;2023-04-01T11:35:55;96653.31;;;10.99
79053;BMP280;68451;49.510;6.026;2023-04-01T11:41:33;96659.00;;;10.86
79053;BMP280;68451;49.510;6.026;2023-04-01T11:44:15;96705.63;;;11.19
79053;BMP280;68451;49.510;6.026;2023-04-01T11:49:53;96703.22;;;11.07
79053;BMP280;68451;49.510;6.026;2023-04-01T11:52:47;96693.72;;;10.86
79053;BMP280;68451;49.510;6.026;2023-04-01T11:58:20;96715.94;;;10.94
79053;BMP280;68451;49.510;6.026;2023-04-01T12:01:17;96607.00;;;10.22
79053;BMP280;68451;49.510;6.026;2023-04-01T12:04:06;96626.97;;;10.43
79053;BMP280;68451;49.510;6.026;2023-04-01T12:12:38;96701.72;;;10.69
79053;BMP280;68451;49.510;6.026;2023-04-01T12:18:11;96735.31;;;10.56
79053;BMP280;68451;49.510;6.026;2023-04-01T12:20:49;96739.69;;;10.50
79053;BMP280;68451;49.510;6.026;2023-04-01T12:29:09;96722.13;;;10.41
79053;BMP280;68451;49.510;6.026;2023-04-01T12:31:56;96635.91;;;9.83
79053;BMP280;68451;49.510;6.026;2023-04-01T12:34:41;96643.56;;;9.95
79053;BMP280;68451;49.510;6.026;2023-04-01T12:37:21;96635.38;;;9.86
79053;BMP280;68451;49.510;6.026;2023-04-01T12:45:54;96681.47;;;10.08
79053;BMP280;68451;49.510;6.026;2023-04-01T12:48:37;96739.88;;;10.39
79053;BMP280;68451;49.510;6.026;2023-04-01T12:54:45;96726.09;;;10.43
79053;BMP280;68451;49.510;6.026;2023-04-01T13:06:16;96764.09;;;10.66
79053;BMP280;68451;49.510;6.026;2023-04-01T13:09:02;96763.97;;;10.51
79053;BMP280;68451;49.510;6.026;2023-04-01T13:14:30;96777.09;;;10.61
79053;BMP280;68451;49.510;6.026;2023-04-01T14:30:15;96821.25;;;10.14
79053;BMP280;68451;49.510;6.026;2023-04-01T14:32:57;96791.84;;;9.92
79053;BMP280;68451;49.510;6.026;2023-04-01T14:35:46;96730.09;;;9.43
79053;BMP280;68451;49.510;6.026;2023-04-01T14:38:30;96812.44;;;9.93
79053;BMP280;68451;49.510;6.026;2023-04-01T14:46:55;96774.50;;;9.54
79053;BMP280;68451;49.510;6.026;2023-04-01T14:49:37;96613.16;;;8.50
79053;BMP280;68451;49.510;6.026;2023-04-01T14:52:28;96828.47;;;9.80
79053;BMP280;68451;49.510;6.026;2023-04-01T14:54:57;96675.06;;;8.91
79053;BMP280;68451;49.510;6.026;2023-04-01T14:57:28;96802.06;;;9.71
79053;BMP280;68451;49.510;6.026;2023-04-01T15:00:00;96716.66;;;9.08
79053;BMP280;68451;49.510;6.026;2023-04-01T15:08:36;96825.47;;;9.93
79053;BMP280;68451;49.510;6.026;2023-04-01T15:14:18;96715.75;;;9.41
79053;BMP280;68451;49.510;6.026;2023-04-01T15:16:58;96846.97;;;10.27
79053;BMP280;68451;49.510;6.026;2023-04-01T15:25:27;96827.78;;;9.89
79053;BMP280;68451;49.510;6.026;2023-04-01T15:28:10;96856.78;;;9.93
79053;BMP280;68451;49.510;6.026;2023-04-01T15:31:05;96855.38;;;9.85
79053;BMP280;68451;49.510;6.026;2023-04-01T15:33:47;96859.75;;;9.80
79053;BMP280;68451;49.510;6.026;2023-04-01T15:36:39;96851.19;;;9.84
79053;BMP280;68451;49.510;6.026;2023-04-01T15:42:21;96830.06;;;9.59
79053;BMP280;68451;49.510;6.026;2023-04-01T15:45:03;96847.75;;;9.57
79053;BMP280;68451;49.510;6.026;2023-04-01T15:47:36;96755.91;;;9.02
79053;BMP280;68451;49.510;6.026;2023-04-01T15:56:24;96848.41;;;9.48
79053;BMP280;68451;49.510;6.026;2023-04-01T15:59:04;96861.97;;;9.50
79053;BMP280;68451;49.510;6.026;2023-04-01T16:01:43;96872.94;;;9.52
79053;BMP280;68451;49.510;6.026;2023-04-01T16:04:32;96881.75;;;9.67
79053;BMP280;68451;49.510;6.026;2023-04-01T16:07:26;96634.22;;;8.15
79053;BMP280;68451;49.510;6.026;2023-04-01T16:10:07;96886.75;;;9.74
79053;BMP280;68451;49.510;6.026;2023-04-01T16:12:50;96887.38;;;9.59
79053;BMP280;68451;49.510;6.026;2023-04-01T16:21:45;96886.41;;;9.65
79053;BMP280;68451;49.510;6.026;2023-04-01T16:24:30;96883.34;;;9.68
79053;BMP280;68451;49.510;6.026;2023-04-01T16:27:16;96886.59;;;9.59
79053;BMP280;68451;49.510;6.026;2023-04-01T16:30:00;96900.06;;;9.72
79053;BMP280;68451;49.510;6.026;2023-04-01T16:35:33;96856.09;;;9.21
79053;BMP280;68451;49.510;6.026;2023-04-01T16:38:22;96851.41;;;9.01
79053;BMP280;68451;49.510;6.026;2023-04-01T16:41:14;96859.34;;;9.11
79053;BMP280;68451;49.510;6.026;2023-04-01T16:43:44;96920.00;;;9.45
79053;BMP280;68451;49.510;6.026;2023-04-01T16:46:28;96891.69;;;9.32
79053;BMP280;68451;49.510;6.026;2023-04-01T16:49:05;96925.28;;;9.50
79053;BMP280;68451;49.510;6.026;2023-04-01T16:54:50;96887.19;;;9.11
79053;BMP280;68451;49.510;6.026;2023-04-01T17:02:58;96933.66;;;9.52
79053;BMP280;68451;49.510;6.026;2023-04-01T17:05:54;96940.44;;;9.53
79053;BMP280;68451;49.510;6.026;2023-04-01T17:08:37;96943.97;;;9.64
79053;BMP280;68451;49.510;6.026;2023-04-01T17:11:19;96938.28;;;9.67
79053;BMP280;68451;49.510;6.026;2023-04-01T17:14:03;96935.22;;;9.53
79053;BMP280;68451;49.510;6.026;2023-04-01T17:16:51;96937.69;;;9.43
79053;BMP280;68451;49.510;6.026;2023-04-01T17:30:43;96921.13;;;9.16
79053;BMP280;68451;49.510;6.026;2023-04-01T17:47:36;96987.25;;;9.15
79053;BMP280;68451;49.510;6.026;2023-04-01T17:50:17;96974.00;;;8.99
79053;BMP280;68451;49.510;6.026;2023-04-01T17:53:01;96990.09;;;9.13
79053;BMP280;68451;49.510;6.026;2023-04-01T17:55:48;96982.19;;;9.08
79053;BMP280;68451;49.510;6.026;2023-04-01T17:58:40;96998.78;;;9.19
79053;BMP280;68451;49.510;6.026;2023-04-01T18:01:26;96897.44;;;8.67
79053;BMP280;68451;49.510;6.026;2023-04-01T18:04:11;97000.34;;;9.20
79053;BMP280;68451;49.510;6.026;2023-04-01T18:16:08;96987.06;;;8.88
79053;BMP280;68451;49.510;6.026;2023-04-01T18:19:08;97007.41;;;8.91
79053;BMP280;68451;49.510;6.026;2023-04-01T18:21:44;96983.81;;;8.81
79053;BMP280;68451;49.510;6.026;2023-04-01T18:24:30;97005.69;;;8.96
79053;BMP280;68451;49.510;6.026;2023-04-01T18:27:06;97008.53;;;8.95
79053;BMP280;68451;49.510;6.026;2023-04-01T18:32:26;96900.06;;;8.10
79053;BMP280;68451;49.510;6.026;2023-04-01T18:35:02;97033.06;;;8.99
79053;BMP280;68451;49.510;6.026;2023-04-01T18:37:39;96922.72;;;8.27
79053;BMP280;68451;49.510;6.026;2023-04-01T18:46:02;97008.06;;;8.98
79053;BMP280;68451;49.510;6.026;2023-04-01T18:51:49;96915.94;;;8.26
79053;BMP280;68451;49.510;6.026;2023-04-01T18:54:31;97055.72;;;9.15
79053;BMP280;68451;49.510;6.026;2023-04-01T18:57:04;96932.53;;;8.36
79053;BMP280;68451;49.510;6.026;2023-04-01T19:02:36;96912.13;;;8.17
79053;BMP280;68451;49.510;6.026;2023-04-01T19:05:24;97069.03;;;9.02
79053;BMP280;68451;49.510;6.026;2023-04-01T19:07:53;97060.59;;;8.95
79053;BMP280;68451;49.510;6.026;2023-04-01T19:21:53;97079.97;;;8.87
79053;BMP280;68451;49.510;6.026;2023-04-01T19:27:29;96995.28;;;8.40
79053;BMP280;68451;49.510;6.026;2023-04-01T19:41:31;97068.25;;;8.62
79053;BMP280;68451;49.510;6.026;2023-04-01T19:44:17;97107.59;;;8.77
79053;BMP280;68451;49.510;6.026;2023-04-01T19:52:45;97023.69;;;8.18
79053;BMP280;68451;49.510;6.026;2023-04-01T19:55:29;97077.38;;;8.47
79053;BMP280;68451;49.510;6.026;2023-04-01T19:58:10;97045.47;;;8.29
79053;BMP280;68451;49.510;6.026;2023-04-01T20:00:43;96989.84;;;7.90
79053;BMP280;68451;49.510;6.026;2023-04-01T20:03:29;97125.72;;;8.83
79053;BMP280;68451;49.510;6.026;2023-04-01T20:06:23;97135.59;;;8.98
79053;BMP280;68451;49.510;6.026;2023-04-01T20:09:03;97117.47;;;8.75
79053;BMP280;68451;49.510;6.026;2023-04-01T20:14:30;97120.66;;;8.65
79053;BMP280;68451;49.510;6.026;2023-04-01T20:17:22;97114.19;;;8.68
79053;BMP280;68451;49.510;6.026;2023-04-01T20:20:03;97132.63;;;8.66
79053;BMP280;68451;49.510;6.026;2023-04-01T20:23:04;97147.47;;;8.66
79053;BMP280;68451;49.510;6.026;2023-04-01T20:25:40;97096.59;;;8.35
79053;BMP280;68451;49.510;6.026;2023-04-01T20:28:21;97153.44;;;8.66
79053;BMP280;68451;49.510;6.026;2023-04-01T20:31:11;97154.47;;;8.65
79053;BMP280;68451;49.510;6.026;2023-04-01T20:34:05;97162.72;;;8.62
79053;BMP280;68451;49.510;6.026;2023-04-01T20:39:46;97163.06;;;8.66
79053;BMP280;68451;49.510;6.026;2023-04-01T20:51:19;97160.22;;;8.67
79053;BMP280;68451;49.510;6.026;2023-04-01T20:53:54;97167.50;;;8.65
79053;BMP280;68451;49.510;6.026;2023-04-01T20:56:31;97055.13;;;7.93
79053;BMP280;68451;49.510;6.026;2023-04-01T21:02:20;97171.66;;;8.66
79053;BMP280;68451;49.510;6.026;2023-04-01T21:05:28;97179.34;;;8.73
79053;BMP280;68451;49.510;6.026;2023-04-01T21:08:13;97097.03;;;8.08
79053;BMP280;68451;49.510;6.026;2023-04-01T21:10:50;97065.53;;;7.93
79053;BMP280;68451;49.510;6.026;2023-04-01T21:13:56;97184.91;;;8.65
79053;BMP280;68451;49.510;6.026;2023-04-01T21:16:37;97195.19;;;8.60
79053;BMP280;68451;49.510;6.026;2023-04-01T21:19:32;97194.41;;;8.59
79053;BMP280;68451;49.510;6.026;2023-04-01T21:28:09;97200.84;;;8.68
79053;BMP280;68451;49.510;6.026;2023-04-01T21:33:54;97192.16;;;8.51
79053;BMP280;68451;49.510;6.026;2023-04-01T21:36:43;97190.34;;;8.51
79053;BMP280;68451;49.510;6.026;2023-04-01T21:42:25;97166.56;;;8.25
79053;BMP280;68451;49.510;6.026;2023-04-01T21:45:16;97105.28;;;7.82
79053;BMP280;68451;49.510;6.026;2023-04-01T21:48:01;97225.19;;;8.50
79053;BMP280;68451;49.510;6.026;2023-04-01T21:59:34;97231.81;;;8.35
79053;BMP280;68451;49.510;6.026;2023-04-01T22:10:53;97193.53;;;7.89
79053;BMP280;68451;49.510;6.026;2023-04-01T22:13:43;97122.56;;;7.35
79053;BMP280;68451;49.510;6.026;2023-04-01T22:16:27;97251.66;;;8.18
79053;BMP280;68451;49.510;6.026;2023-04-01T22:19:11;97123.25;;;7.42
79053;BMP280;68451;49.510;6.026;2023-04-01T22:21:47;97240.94;;;8.14